createdAt,value
2019-04-27T00:00:17.836Z,0.00
2019-04-27T00:01:17.851Z,0.00
2019-04-27T00:02:18.236Z,0.00
2019-04-27T00:03:17.804Z,0.00
2019-04-27T00:04:19.292Z,0.00
2019-04-27T00:05:17.784Z,0.00
2019-04-27T00:06:17.774Z,0.00
2019-04-27T00:07:21.198Z,0.00
2019-04-27T00:08:17.750Z,0.00
2019-04-27T00:09:17.763Z,0.00
2019-04-27T00:10:20.484Z,0.00
2019-04-27T00:11:18.716Z,0.00
2019-04-27T00:12:22.747Z,0.00
2019-04-27T00:13:18.713Z,0.00
2019-04-27T00:14:18.218Z,0.00
2019-04-27T00:15:17.673Z,0.00
2019-04-27T00:16:17.662Z,0.00
2019-04-27T00:17:21.168Z,0.00
2019-04-27T00:18:18.642Z,0.00
2019-04-27T00:19:17.643Z,0.00
2019-04-27T00:20:17.619Z,0.00
2019-04-27T00:21:17.608Z,0.00
2019-04-27T00:22:17.600Z,0.00
2019-04-27T00:23:17.586Z,0.00
2019-04-27T00:24:17.575Z,0.00
2019-04-27T00:25:17.578Z,0.00
2019-04-27T00:26:17.554Z,0.00
2019-04-27T00:27:17.543Z,0.00
2019-04-27T00:28:17.531Z,0.00
2019-04-27T00:29:17.526Z,0.00
2019-04-27T00:30:17.509Z,0.00
2019-04-27T00:31:17.526Z,0.00
2019-04-27T00:32:17.488Z,0.00
2019-04-27T00:33:17.482Z,0.00
2019-04-27T00:34:17.467Z,0.00
2019-04-27T00:35:17.457Z,0.00
2019-04-27T00:36:17.448Z,0.00
2019-04-27T00:37:17.448Z,0.00
2019-04-27T00:38:17.424Z,0.00
2019-04-27T00:39:17.412Z,0.00
2019-04-27T00:40:17.402Z,0.00
2019-04-27T00:41:19.137Z,0.00
2019-04-27T00:42:17.380Z,0.00
2019-04-27T00:43:17.381Z,0.00
2019-04-27T00:44:17.360Z,0.00
2019-04-27T00:45:17.353Z,0.00
2019-04-27T00:46:17.339Z,0.00
2019-04-27T00:47:17.336Z,0.00
2019-04-27T00:48:17.317Z,0.00
2019-04-27T00:49:20.021Z,0.00
2019-04-27T00:50:17.296Z,0.00
2019-04-27T00:51:17.289Z,0.00
2019-04-27T00:52:17.275Z,0.00
2019-04-27T00:53:17.264Z,0.00
2019-04-27T00:54:17.254Z,0.00
2019-04-27T00:55:17.269Z,0.00
2019-04-27T00:56:17.232Z,0.00
2019-04-27T00:57:17.225Z,0.00
2019-04-27T00:58:17.212Z,0.00
2019-04-27T00:59:17.201Z,0.00
2019-04-27T01:00:17.194Z,0.00
2019-04-27T01:01:17.191Z,0.00
2019-04-27T01:02:17.169Z,0.00
2019-04-27T01:03:17.159Z,0.00
2019-04-27T01:04:17.161Z,0.00
2019-04-27T01:05:17.139Z,0.00
2019-04-27T01:06:17.128Z,0.00
2019-04-27T01:07:17.140Z,0.00
2019-04-27T01:08:17.108Z,0.00
2019-04-27T01:09:17.101Z,0.00
2019-04-27T01:10:17.088Z,0.00
2019-04-27T01:11:17.076Z,0.00
2019-04-27T01:12:17.064Z,0.00
2019-04-27T01:13:17.077Z,0.00
2019-04-27T01:14:17.044Z,0.00
2019-04-27T01:15:17.031Z,0.00
2019-04-27T01:16:21.558Z,0.00
2019-04-27T01:17:18.891Z,0.00
2019-04-27T01:18:17.001Z,0.00
2019-04-27T01:19:18.945Z,0.00
2019-04-27T01:20:18.490Z,0.00
2019-04-27T01:21:16.969Z,0.00
2019-04-27T01:22:18.779Z,0.00
2019-04-27T01:23:16.948Z,0.00
2019-04-27T01:24:18.782Z,0.00
2019-04-27T01:25:18.490Z,0.00
2019-04-27T01:26:18.506Z,0.00
2019-04-27T01:27:16.904Z,0.00
2019-04-27T01:28:18.617Z,0.00
2019-04-27T01:29:16.884Z,0.00
2019-04-27T01:30:16.873Z,0.00
2019-04-27T01:31:16.876Z,0.00
2019-04-27T01:32:16.855Z,0.00
2019-04-27T01:33:16.841Z,0.00
2019-04-27T01:34:16.830Z,0.00
2019-04-27T01:35:18.626Z,0.00
2019-04-27T01:36:16.811Z,0.00
2019-04-27T01:37:16.827Z,0.00
2019-04-27T01:38:16.796Z,0.00
2019-04-27T01:39:18.606Z,0.00
2019-04-27T01:40:16.767Z,0.00
2019-04-27T01:41:16.756Z,0.00
2019-04-27T01:42:16.746Z,0.00
2019-04-27T01:43:18.618Z,0.00
2019-04-27T01:44:16.730Z,0.00
2019-04-27T01:45:16.713Z,0.00
2019-04-27T01:46:16.701Z,0.00
2019-04-27T01:47:16.690Z,0.00
2019-04-27T01:48:23.670Z,0.00
2019-04-27T01:49:19.269Z,0.00
2019-04-27T01:50:16.663Z,0.00
2019-04-27T01:51:16.647Z,0.00
2019-04-27T01:52:16.635Z,0.00
2019-04-27T01:53:16.625Z,0.00
2019-04-27T01:54:16.617Z,0.00
2019-04-27T01:55:16.617Z,0.00
2019-04-27T01:56:16.591Z,0.00
2019-04-27T01:57:16.580Z,0.00
2019-04-27T01:58:16.570Z,0.00
2019-04-27T01:59:16.559Z,0.00
2019-04-27T02:00:16.548Z,0.00
2019-04-27T02:01:16.555Z,0.00
2019-04-27T02:02:16.527Z,0.00
2019-04-27T02:03:16.515Z,0.00
2019-04-27T02:04:16.503Z,0.00
2019-04-27T02:05:16.494Z,0.00
2019-04-27T02:06:16.487Z,0.00
2019-04-27T02:07:16.482Z,0.00
2019-04-27T02:08:16.459Z,0.00
2019-04-27T02:09:16.450Z,0.00
2019-04-27T02:10:16.437Z,0.00
2019-04-27T02:11:16.427Z,0.00
2019-04-27T02:12:16.422Z,0.00
2019-04-27T02:13:16.415Z,0.00
2019-04-27T02:14:16.396Z,0.00
2019-04-27T02:15:16.383Z,0.00
2019-04-27T02:16:16.372Z,0.00
2019-04-27T02:17:16.361Z,0.00
2019-04-27T02:18:16.350Z,0.00
2019-04-27T02:19:16.352Z,0.00
2019-04-27T02:20:16.328Z,0.00
2019-04-27T02:21:16.317Z,0.00
2019-04-27T02:22:16.306Z,0.00
2019-04-27T02:23:16.295Z,0.00
2019-04-27T02:24:16.284Z,0.00
2019-04-27T02:25:16.288Z,0.00
2019-04-27T02:26:16.262Z,0.00
2019-04-27T02:27:16.251Z,0.00
2019-04-27T02:28:16.240Z,0.00
2019-04-27T02:29:16.230Z,0.00
2019-04-27T02:30:16.219Z,0.00
2019-04-27T02:31:16.218Z,0.00
2019-04-27T02:32:16.197Z,0.00
2019-04-27T02:33:16.196Z,0.00
2019-04-27T02:34:16.176Z,0.00
2019-04-27T02:35:16.165Z,0.00
2019-04-27T02:36:16.155Z,0.00
2019-04-27T02:37:16.151Z,0.00
2019-04-27T02:38:16.131Z,0.00
2019-04-27T02:39:16.118Z,0.00
2019-04-27T02:40:16.110Z,0.00
2019-04-27T02:41:16.097Z,0.00
2019-04-27T02:42:16.087Z,0.00
2019-04-27T02:43:16.098Z,0.00
2019-04-27T02:44:16.066Z,0.00
2019-04-27T02:45:16.060Z,0.00
2019-04-27T02:46:16.043Z,0.00
2019-04-27T02:47:16.033Z,0.00
2019-04-27T02:48:16.021Z,0.00
2019-04-27T02:49:16.022Z,0.00
2019-04-27T02:50:16.009Z,0.00
2019-04-27T02:51:15.994Z,0.00
2019-04-27T02:52:15.978Z,0.00
2019-04-27T02:53:15.967Z,0.00
2019-04-27T02:54:15.983Z,0.00
2019-04-27T02:55:15.963Z,0.00
2019-04-27T02:56:15.934Z,0.00
2019-04-27T02:57:15.923Z,0.00
2019-04-27T02:58:15.919Z,0.00
2019-04-27T02:59:15.906Z,0.00
2019-04-27T03:00:15.899Z,0.00
2019-04-27T03:01:15.890Z,0.00
2019-04-27T03:02:15.869Z,0.00
2019-04-27T03:03:15.857Z,0.00
2019-04-27T03:04:15.847Z,0.00
2019-04-27T03:05:15.837Z,0.00
2019-04-27T03:06:15.826Z,0.00
2019-04-27T03:07:15.831Z,0.00
2019-04-27T03:08:15.803Z,0.00
2019-04-27T03:09:15.792Z,0.00
2019-04-27T03:10:15.783Z,0.00
2019-04-27T03:11:15.771Z,0.00
2019-04-27T03:12:15.761Z,0.00
2019-04-27T03:13:15.764Z,0.00
2019-04-27T03:14:29.497Z,0.00
2019-04-27T03:15:16.726Z,0.00
2019-04-27T03:16:15.718Z,0.00
2019-04-27T03:17:15.710Z,0.00
2019-04-27T03:18:15.695Z,0.00
2019-04-27T03:19:18.807Z,0.00
2019-04-27T03:20:16.673Z,0.00
2019-04-27T03:21:15.663Z,0.00
2019-04-27T03:22:15.652Z,0.00
2019-04-27T03:23:15.641Z,0.00
2019-04-27T03:24:15.647Z,0.00
2019-04-27T03:25:15.786Z,0.00
2019-04-27T03:26:15.609Z,0.00
2019-04-27T03:27:15.621Z,0.00
2019-04-27T03:28:15.590Z,0.00
2019-04-27T03:29:15.576Z,0.00
2019-04-27T03:30:15.580Z,0.00
2019-04-27T03:31:15.574Z,0.00
2019-04-27T03:32:15.544Z,0.00
2019-04-27T03:33:15.533Z,0.00
2019-04-27T03:34:16.537Z,0.00
2019-04-27T03:35:15.514Z,0.00
2019-04-27T03:36:15.501Z,0.00
2019-04-27T03:37:15.501Z,0.00
2019-04-27T03:38:15.480Z,0.00
2019-04-27T03:39:15.468Z,0.00
2019-04-27T03:40:15.457Z,0.00
2019-04-27T03:41:15.450Z,0.00
2019-04-27T03:42:15.437Z,0.00
2019-04-27T03:43:15.463Z,0.00
2019-04-27T03:44:15.416Z,0.00
2019-04-27T03:45:15.413Z,0.00
2019-04-27T03:46:15.408Z,0.00
2019-04-27T03:47:15.384Z,0.00
2019-04-27T03:48:15.373Z,0.00
2019-04-27T03:49:29.418Z,0.00
2019-04-27T03:50:16.359Z,0.00
2019-04-27T03:51:15.340Z,0.00
2019-04-27T03:52:15.330Z,0.00
2019-04-27T03:53:15.318Z,0.00
2019-04-27T03:54:15.309Z,0.00
2019-04-27T03:55:15.316Z,0.00
2019-04-27T03:56:15.287Z,0.00
2019-04-27T03:57:15.277Z,0.00
2019-04-27T03:58:15.267Z,0.00
2019-04-27T03:59:15.259Z,0.00
2019-04-27T04:00:15.245Z,0.00
2019-04-27T04:01:15.250Z,5.62
2019-04-27T04:02:15.224Z,5.62
2019-04-27T04:03:15.212Z,5.62
2019-04-27T04:04:15.200Z,5.62
2019-04-27T04:05:15.198Z,5.62
2019-04-27T04:06:15.179Z,5.62
2019-04-27T04:07:15.197Z,5.62
2019-04-27T04:08:15.162Z,11.25
2019-04-27T04:09:15.152Z,11.25
2019-04-27T04:10:15.137Z,11.25
2019-04-27T04:11:15.130Z,11.25
2019-04-27T04:12:15.128Z,11.25
2019-04-27T04:13:15.119Z,16.88
2019-04-27T04:14:15.102Z,16.88
2019-04-27T04:15:15.085Z,16.88
2019-04-27T04:16:15.073Z,16.88
2019-04-27T04:17:15.064Z,22.50
2019-04-27T04:18:15.051Z,22.50
2019-04-27T04:19:15.054Z,28.12
2019-04-27T04:20:15.031Z,28.12
2019-04-27T04:21:15.033Z,28.12
2019-04-27T04:22:15.011Z,33.75
2019-04-27T04:23:15.001Z,33.75
2019-04-27T04:24:14.989Z,33.75
2019-04-27T04:25:14.990Z,39.38
2019-04-27T04:26:14.966Z,39.38
2019-04-27T04:27:14.958Z,39.38
2019-04-27T04:28:14.948Z,45.00
2019-04-27T04:29:14.937Z,45.00
2019-04-27T04:30:14.924Z,45.00
2019-04-27T04:31:14.928Z,50.62
2019-04-27T04:32:14.906Z,50.62
2019-04-27T04:33:14.891Z,56.25
2019-04-27T04:34:14.892Z,61.88
2019-04-27T04:35:14.880Z,67.50
2019-04-27T04:36:14.863Z,67.50
2019-04-27T04:37:14.861Z,73.12
2019-04-27T04:38:14.840Z,73.12
2019-04-27T04:39:14.827Z,73.12
2019-04-27T04:40:14.819Z,73.12
2019-04-27T04:41:14.805Z,78.75
2019-04-27T04:42:14.795Z,78.75
2019-04-27T04:43:14.795Z,84.38
2019-04-27T04:44:14.773Z,84.38
2019-04-27T04:45:14.766Z,90.00
2019-04-27T04:46:14.753Z,90.00
2019-04-27T04:47:14.740Z,95.62
2019-04-27T04:48:14.733Z,95.62
2019-04-27T04:49:14.737Z,101.25
2019-04-27T04:50:15.422Z,101.25
2019-04-27T04:51:14.695Z,101.25
2019-04-27T04:52:14.685Z,106.88
2019-04-27T04:53:14.674Z,106.88
2019-04-27T04:54:14.664Z,112.50
2019-04-27T04:55:14.669Z,112.50
2019-04-27T04:56:14.642Z,112.50
2019-04-27T04:57:14.633Z,118.12
2019-04-27T04:58:14.619Z,118.12
2019-04-27T04:59:14.609Z,118.12
2019-04-27T05:00:14.604Z,118.12
2019-04-27T05:01:14.597Z,129.38
2019-04-27T05:02:14.577Z,129.38
2019-04-27T05:03:14.566Z,123.75
2019-04-27T05:04:14.554Z,129.38
2019-04-27T05:05:14.543Z,135.00
2019-04-27T05:06:14.532Z,135.00
2019-04-27T05:07:14.533Z,140.62
2019-04-27T05:08:14.512Z,140.62
2019-04-27T05:09:14.500Z,146.25
2019-04-27T05:10:14.489Z,146.25
2019-04-27T05:11:14.490Z,151.88
2019-04-27T05:12:14.468Z,157.50
2019-04-27T05:13:14.470Z,151.88
2019-04-27T05:14:14.447Z,151.88
2019-04-27T05:15:14.436Z,157.50
2019-04-27T05:16:14.425Z,157.50
2019-04-27T05:17:14.423Z,157.50
2019-04-27T05:18:14.404Z,168.75
2019-04-27T05:19:14.408Z,168.75
2019-04-27T05:20:22.582Z,168.75
2019-04-27T05:21:15.371Z,174.38
2019-04-27T05:22:14.362Z,174.38
2019-04-27T05:23:14.351Z,180.00
2019-04-27T05:24:14.339Z,185.62
2019-04-27T05:25:14.341Z,196.88
2019-04-27T05:26:14.318Z,196.88
2019-04-27T05:27:14.306Z,196.88
2019-04-27T05:28:14.297Z,202.50
2019-04-27T05:29:14.285Z,202.50
2019-04-27T05:30:14.273Z,213.75
2019-04-27T05:31:14.284Z,213.75
2019-04-27T05:32:14.251Z,225.00
2019-04-27T05:33:14.243Z,208.12
2019-04-27T05:34:14.230Z,208.12
2019-04-27T05:35:14.218Z,202.50
2019-04-27T05:36:14.207Z,236.25
2019-04-27T05:37:14.209Z,303.75
2019-04-27T05:38:14.185Z,393.75
2019-04-27T05:39:18.113Z,455.62
2019-04-27T05:40:15.162Z,461.25
2019-04-27T05:41:14.152Z,343.12
2019-04-27T05:42:17.006Z,360.00
2019-04-27T05:43:15.151Z,343.12
2019-04-27T05:44:14.121Z,331.88
2019-04-27T05:45:15.312Z,703.12
2019-04-27T05:46:15.096Z,478.12
2019-04-27T05:47:14.087Z,540.00
2019-04-27T05:48:14.075Z,444.38
2019-04-27T05:49:14.075Z,427.50
2019-04-27T05:50:20.039Z,461.25
2019-04-27T05:51:15.042Z,433.12
2019-04-27T05:52:14.661Z,798.75
2019-04-27T05:53:14.022Z,905.62
2019-04-27T05:54:14.010Z,866.25
2019-04-27T05:55:14.017Z,905.62
2019-04-27T05:56:13.989Z,956.25
2019-04-27T05:57:13.978Z,956.25
2019-04-27T05:58:13.968Z,916.88
2019-04-27T05:59:14.776Z,821.25
2019-04-27T06:00:13.945Z,759.38
2019-04-27T06:01:13.954Z,652.50
2019-04-27T06:02:13.923Z,641.25
2019-04-27T06:03:13.912Z,703.12
2019-04-27T06:04:13.901Z,635.62
2019-04-27T06:05:13.897Z,607.50
2019-04-27T06:06:13.879Z,838.12
2019-04-27T06:07:13.883Z,860.62
2019-04-27T06:08:13.858Z,787.50
2019-04-27T06:09:13.851Z,736.88
2019-04-27T06:10:13.844Z,939.38
2019-04-27T06:11:13.825Z,978.75
2019-04-27T06:12:13.840Z,984.38
2019-04-27T06:13:13.839Z,995.62
2019-04-27T06:14:13.793Z,1057.50
2019-04-27T06:15:13.783Z,1102.50
2019-04-27T06:16:13.772Z,1051.88
2019-04-27T06:17:13.763Z,444.38
2019-04-27T06:18:13.757Z,399.38
2019-04-27T06:19:13.750Z,410.62
2019-04-27T06:20:13.738Z,405.00
2019-04-27T06:21:13.723Z,405.00
2019-04-27T06:22:13.705Z,405.00
2019-04-27T06:23:13.694Z,388.12
2019-04-27T06:24:13.682Z,427.50
2019-04-27T06:25:13.698Z,489.38
2019-04-27T06:26:13.661Z,697.50
2019-04-27T06:27:13.650Z,1175.62
2019-04-27T06:28:13.644Z,1046.25
2019-04-27T06:29:13.631Z,984.38
2019-04-27T06:30:13.620Z,641.25
2019-04-27T06:31:13.619Z,978.75
2019-04-27T06:32:13.595Z,916.88
2019-04-27T06:33:13.584Z,770.62
2019-04-27T06:34:13.574Z,466.88
2019-04-27T06:35:13.563Z,438.75
2019-04-27T06:36:13.552Z,466.88
2019-04-27T06:37:13.553Z,326.25
2019-04-27T06:38:13.536Z,286.88
2019-04-27T06:39:13.518Z,253.12
2019-04-27T06:40:13.508Z,230.62
2019-04-27T06:41:13.499Z,219.38
2019-04-27T06:42:18.461Z,219.38
2019-04-27T06:43:14.487Z,202.50
2019-04-27T06:44:13.465Z,185.62
2019-04-27T06:45:13.455Z,168.75
2019-04-27T06:46:13.445Z,163.12
2019-04-27T06:47:13.433Z,157.50
2019-04-27T06:48:13.421Z,140.62
2019-04-27T06:49:13.430Z,135.00
2019-04-27T06:50:13.400Z,135.00
2019-04-27T06:51:13.390Z,140.62
2019-04-27T06:52:13.382Z,151.88
2019-04-27T06:53:13.368Z,163.12
2019-04-27T06:54:13.357Z,174.38
2019-04-27T06:55:13.359Z,174.38
2019-04-27T06:56:13.334Z,174.38
2019-04-27T06:57:13.325Z,180.00
2019-04-27T06:58:13.314Z,163.12
2019-04-27T06:59:13.302Z,163.12
2019-04-27T07:00:13.292Z,151.88
2019-04-27T07:01:13.298Z,140.62
2019-04-27T07:02:13.269Z,135.00
2019-04-27T07:03:13.262Z,129.38
2019-04-27T07:04:13.247Z,129.38
2019-04-27T07:05:13.237Z,129.38
2019-04-27T07:06:13.224Z,135.00
2019-04-27T07:07:13.231Z,129.38
2019-04-27T07:08:13.206Z,135.00
2019-04-27T07:09:13.203Z,140.62
2019-04-27T07:10:13.180Z,129.38
2019-04-27T07:11:13.228Z,129.38
2019-04-27T07:12:13.160Z,129.38
2019-04-27T07:13:13.159Z,129.38
2019-04-27T07:14:13.136Z,123.75
2019-04-27T07:15:15.425Z,118.12
2019-04-27T07:16:13.120Z,118.12
2019-04-27T07:17:13.103Z,118.12
2019-04-27T07:18:13.098Z,118.12
2019-04-27T07:19:13.101Z,118.12
2019-04-27T07:20:13.105Z,118.12
2019-04-27T07:21:18.769Z,123.75
2019-04-27T07:22:14.049Z,129.38
2019-04-27T07:23:13.042Z,140.62
2019-04-27T07:24:13.028Z,146.25
2019-04-27T07:25:13.029Z,151.88
2019-04-27T07:26:13.008Z,157.50
2019-04-27T07:27:12.997Z,163.12
2019-04-27T07:28:12.985Z,168.75
2019-04-27T07:29:12.974Z,174.38
2019-04-27T07:30:12.963Z,174.38
2019-04-27T07:31:12.965Z,174.38
2019-04-27T07:32:12.944Z,168.75
2019-04-27T07:33:12.932Z,174.38
2019-04-27T07:34:12.922Z,180.00
2019-04-27T07:35:12.911Z,185.62
2019-04-27T07:36:12.900Z,185.62
2019-04-27T07:37:12.902Z,196.88
2019-04-27T07:38:12.881Z,202.50
2019-04-27T07:39:12.869Z,208.12
2019-04-27T07:40:12.857Z,219.38
2019-04-27T07:41:12.846Z,230.62
2019-04-27T07:42:12.835Z,247.50
2019-04-27T07:43:12.839Z,258.75
2019-04-27T07:44:12.815Z,270.00
2019-04-27T07:45:12.803Z,286.88
2019-04-27T07:46:12.794Z,292.50
2019-04-27T07:47:12.783Z,286.88
2019-04-27T07:48:12.771Z,270.00
2019-04-27T07:49:12.771Z,264.38
2019-04-27T07:50:12.752Z,247.50
2019-04-27T07:51:12.738Z,230.62
2019-04-27T07:52:12.727Z,225.00
2019-04-27T07:53:12.717Z,225.00
2019-04-27T07:54:12.708Z,208.12
2019-04-27T07:55:12.706Z,225.00
2019-04-27T07:56:12.685Z,236.25
2019-04-27T07:57:12.673Z,253.12
2019-04-27T07:58:12.661Z,264.38
2019-04-27T07:59:12.651Z,258.75
2019-04-27T08:00:12.639Z,230.62
2019-04-27T08:01:12.640Z,180.00
2019-04-27T08:02:12.627Z,157.50
2019-04-27T08:03:12.608Z,146.25
2019-04-27T08:04:12.595Z,151.88
2019-04-27T08:05:12.585Z,151.88
2019-04-27T08:06:12.573Z,151.88
2019-04-27T08:07:12.575Z,146.25
2019-04-27T08:08:12.552Z,140.62
2019-04-27T08:09:12.539Z,129.38
2019-04-27T08:10:12.528Z,123.75
2019-04-27T08:11:12.522Z,123.75
2019-04-27T08:12:12.517Z,123.75
2019-04-27T08:13:12.509Z,123.75
2019-04-27T08:14:12.484Z,118.12
2019-04-27T08:15:12.474Z,118.12
2019-04-27T08:16:12.464Z,123.75
2019-04-27T08:17:12.452Z,123.75
2019-04-27T08:18:12.441Z,129.38
2019-04-27T08:19:12.442Z,135.00
2019-04-27T08:20:12.420Z,140.62
2019-04-27T08:21:12.411Z,140.62
2019-04-27T08:22:12.404Z,140.62
2019-04-27T08:23:12.388Z,146.25
2019-04-27T08:24:12.377Z,146.25
2019-04-27T08:25:12.381Z,151.88
2019-04-27T08:26:12.356Z,151.88
2019-04-27T08:27:12.346Z,151.88
2019-04-27T08:28:12.355Z,151.88
2019-04-27T08:29:12.323Z,151.88
2019-04-27T08:30:12.313Z,140.62
2019-04-27T08:31:12.312Z,135.00
2019-04-27T08:32:12.291Z,118.12
2019-04-27T08:33:12.283Z,106.88
2019-04-27T08:34:12.270Z,95.62
2019-04-27T08:35:12.259Z,90.00
2019-04-27T08:36:12.252Z,95.62
2019-04-27T08:37:12.247Z,90.00
2019-04-27T08:38:12.229Z,90.00
2019-04-27T08:39:12.219Z,95.62
2019-04-27T08:40:12.205Z,112.50
2019-04-27T08:41:12.196Z,129.38
2019-04-27T08:42:12.183Z,135.00
2019-04-27T08:43:12.203Z,118.12
2019-04-27T08:44:12.161Z,106.88
2019-04-27T08:45:12.151Z,101.25
2019-04-27T08:46:12.138Z,112.50
2019-04-27T08:47:12.136Z,129.38
2019-04-27T08:48:12.122Z,135.00
2019-04-27T08:49:12.141Z,140.62
2019-04-27T08:50:12.095Z,140.62
2019-04-27T08:51:12.086Z,151.88
2019-04-27T08:52:12.074Z,168.75
2019-04-27T08:53:12.062Z,180.00
2019-04-27T08:54:12.052Z,196.88
2019-04-27T08:55:12.052Z,208.12
2019-04-27T08:56:12.030Z,208.12
2019-04-27T08:57:12.019Z,202.50
2019-04-27T08:58:12.011Z,196.88
2019-04-27T08:59:11.998Z,202.50
2019-04-27T09:00:11.986Z,196.88
2019-04-27T09:01:11.987Z,196.88
2019-04-27T09:02:11.968Z,202.50
2019-04-27T09:03:11.955Z,202.50
2019-04-27T09:04:11.979Z,208.12
2019-04-27T09:05:11.931Z,213.75
2019-04-27T09:06:11.920Z,202.50
2019-04-27T09:07:11.959Z,202.50
2019-04-27T09:08:11.898Z,202.50
2019-04-27T09:09:11.886Z,196.88
2019-04-27T09:10:11.875Z,208.12
2019-04-27T09:11:11.864Z,208.12
2019-04-27T09:12:11.890Z,225.00
2019-04-27T09:13:11.857Z,230.62
2019-04-27T09:14:11.835Z,241.88
2019-04-27T09:15:11.823Z,253.12
2019-04-27T09:16:11.810Z,258.75
2019-04-27T09:17:11.799Z,264.38
2019-04-27T09:18:11.792Z,264.38
2019-04-27T09:19:11.794Z,264.38
2019-04-27T09:20:11.769Z,264.38
2019-04-27T09:21:11.754Z,270.00
2019-04-27T09:22:15.893Z,264.38
2019-04-27T09:23:11.736Z,258.75
2019-04-27T09:24:11.722Z,253.12
2019-04-27T09:25:11.728Z,247.50
2019-04-27T09:26:11.707Z,258.75
2019-04-27T09:27:11.688Z,264.38
2019-04-27T09:28:11.678Z,281.25
2019-04-27T09:29:11.667Z,281.25
2019-04-27T09:30:11.656Z,292.50
2019-04-27T09:31:11.657Z,292.50
2019-04-27T09:32:11.639Z,292.50
2019-04-27T09:33:11.635Z,298.12
2019-04-27T09:34:12.746Z,303.75
2019-04-27T09:35:11.604Z,315.00
2019-04-27T09:36:11.592Z,320.62
2019-04-27T09:37:11.591Z,326.25
2019-04-27T09:38:11.570Z,320.62
2019-04-27T09:39:11.558Z,326.25
2019-04-27T09:40:11.571Z,309.38
2019-04-27T09:41:11.538Z,331.88
2019-04-27T09:42:11.529Z,348.75
2019-04-27T09:43:11.527Z,382.50
2019-04-27T09:44:11.506Z,388.12
2019-04-27T09:45:11.501Z,376.88
2019-04-27T09:46:11.483Z,371.25
2019-04-27T09:47:11.473Z,348.75
2019-04-27T09:48:11.462Z,281.25
2019-04-27T09:49:12.184Z,253.12
2019-04-27T09:50:11.441Z,241.88
2019-04-27T09:51:11.429Z,253.12
2019-04-27T09:52:23.672Z,298.12
2019-04-27T09:53:12.410Z,309.38
2019-04-27T09:54:11.421Z,286.88
2019-04-27T09:55:11.397Z,270.00
2019-04-27T09:56:11.375Z,275.62
2019-04-27T09:57:11.367Z,303.75
2019-04-27T09:58:11.354Z,320.62
2019-04-27T09:59:11.343Z,343.12
2019-04-27T10:00:11.332Z,326.25
2019-04-27T10:01:11.333Z,281.25
2019-04-27T10:02:11.313Z,236.25
2019-04-27T10:03:11.307Z,196.88
2019-04-27T10:04:11.289Z,174.38
2019-04-27T10:05:11.286Z,151.88
2019-04-27T10:06:11.290Z,151.88
2019-04-27T10:07:11.269Z,157.50
2019-04-27T10:08:11.250Z,151.88
2019-04-27T10:09:11.236Z,146.25
2019-04-27T10:10:11.225Z,157.50
2019-04-27T10:11:11.215Z,213.75
2019-04-27T10:12:11.205Z,247.50
2019-04-27T10:13:11.215Z,247.50
2019-04-27T10:14:11.184Z,264.38
2019-04-27T10:15:11.171Z,292.50
2019-04-27T10:16:11.164Z,258.75
2019-04-27T10:17:11.150Z,253.12
2019-04-27T10:18:11.141Z,236.25
2019-04-27T10:19:11.140Z,208.12
2019-04-27T10:20:11.131Z,202.50
2019-04-27T10:21:11.109Z,208.12
2019-04-27T10:22:11.144Z,185.62
2019-04-27T10:23:11.090Z,180.00
2019-04-27T10:24:11.087Z,180.00
2019-04-27T10:25:11.079Z,180.00
2019-04-27T10:26:11.060Z,191.25
2019-04-27T10:27:11.043Z,230.62
2019-04-27T10:28:11.034Z,298.12
2019-04-27T10:29:11.028Z,309.38
2019-04-27T10:30:11.034Z,253.12
2019-04-27T10:31:11.011Z,230.62
2019-04-27T10:32:11.021Z,241.88
2019-04-27T10:33:10.979Z,303.75
2019-04-27T10:34:10.973Z,326.25
2019-04-27T10:35:10.973Z,354.38
2019-04-27T10:36:10.950Z,354.38
2019-04-27T10:37:10.956Z,320.62
2019-04-27T10:38:10.930Z,326.25
2019-04-27T10:39:13.294Z,326.25
2019-04-27T10:40:10.909Z,348.75
2019-04-27T10:41:10.906Z,337.50
2019-04-27T10:42:10.888Z,365.62
2019-04-27T10:43:10.907Z,376.88
2019-04-27T10:44:10.862Z,354.38
2019-04-27T10:45:10.867Z,326.25
2019-04-27T10:46:10.845Z,303.75
2019-04-27T10:47:10.841Z,320.62
2019-04-27T10:48:10.821Z,371.25
2019-04-27T10:49:10.842Z,416.25
2019-04-27T10:50:10.797Z,438.75
2019-04-27T10:51:10.791Z,438.75
2019-04-27T10:52:10.778Z,416.25
2019-04-27T10:53:10.771Z,405.00
2019-04-27T10:54:10.765Z,416.25
2019-04-27T10:55:10.756Z,410.62
2019-04-27T10:56:10.732Z,371.25
2019-04-27T10:57:10.729Z,337.50
2019-04-27T10:58:10.719Z,331.88
2019-04-27T10:59:10.703Z,303.75
2019-04-27T11:00:10.687Z,286.88
2019-04-27T11:01:10.698Z,275.62
2019-04-27T11:02:10.676Z,286.88
2019-04-27T11:03:10.677Z,348.75
2019-04-27T11:04:10.644Z,382.50
2019-04-27T11:05:10.639Z,376.88
2019-04-27T11:06:10.622Z,360.00
2019-04-27T11:07:10.635Z,382.50
2019-04-27T11:08:10.615Z,405.00
2019-04-27T11:09:10.597Z,405.00
2019-04-27T11:10:10.589Z,315.00
2019-04-27T11:11:10.573Z,281.25
2019-04-27T11:12:10.573Z,230.62
2019-04-27T11:13:10.565Z,202.50
2019-04-27T11:14:10.536Z,135.00
2019-04-27T11:15:10.546Z,101.25
2019-04-27T11:16:10.520Z,78.75
2019-04-27T11:17:10.513Z,61.88
2019-04-27T11:18:10.499Z,73.12
2019-04-27T11:19:10.494Z,112.50
2019-04-27T11:20:10.471Z,140.62
2019-04-27T11:21:10.466Z,163.12
2019-04-27T11:22:10.451Z,180.00
2019-04-27T11:23:12.451Z,185.62
2019-04-27T11:24:10.431Z,180.00
2019-04-27T11:25:10.425Z,168.75
2019-04-27T11:26:10.409Z,157.50
2019-04-27T11:27:10.395Z,157.50
2019-04-27T11:28:10.385Z,163.12
2019-04-27T11:29:10.373Z,174.38
2019-04-27T11:30:10.366Z,191.25
2019-04-27T11:31:10.380Z,208.12
2019-04-27T11:32:10.357Z,225.00
2019-04-27T11:33:10.331Z,225.00
2019-04-27T11:34:10.322Z,230.62
2019-04-27T11:35:10.308Z,219.38
2019-04-27T11:36:10.332Z,213.75
2019-04-27T11:37:10.299Z,208.12
2019-04-27T11:38:10.278Z,208.12
2019-04-27T11:39:10.270Z,196.88
2019-04-27T11:40:10.257Z,191.25
2019-04-27T11:41:10.243Z,174.38
2019-04-27T11:42:10.245Z,174.38
2019-04-27T11:43:10.230Z,163.12
2019-04-27T11:44:10.221Z,151.88
2019-04-27T11:45:10.202Z,146.25
2019-04-27T11:46:10.191Z,135.00
2019-04-27T11:47:10.180Z,135.00
2019-04-27T11:48:10.168Z,146.25
2019-04-27T11:49:10.168Z,146.25
2019-04-27T11:50:10.147Z,151.88
2019-04-27T11:51:11.090Z,151.88
2019-04-27T11:52:10.125Z,151.88
2019-04-27T11:53:19.871Z,151.88
2019-04-27T11:54:11.116Z,157.50
2019-04-27T11:55:10.095Z,163.12
2019-04-27T11:56:10.084Z,163.12
2019-04-27T11:57:10.074Z,168.75
2019-04-27T11:58:10.080Z,180.00
2019-04-27T11:59:10.050Z,191.25
2019-04-27T12:00:10.050Z,202.50
2019-04-27T12:01:10.033Z,219.38
2019-04-27T12:02:10.017Z,258.75
2019-04-27T12:03:10.008Z,303.75
2019-04-27T12:04:09.995Z,354.38
2019-04-27T12:05:09.996Z,354.38
2019-04-27T12:06:09.984Z,348.75
2019-04-27T12:07:09.974Z,360.00
2019-04-27T12:08:09.957Z,365.62
2019-04-27T12:09:09.950Z,360.00
2019-04-27T12:10:09.936Z,315.00
2019-04-27T12:11:09.920Z,303.75
2019-04-27T12:12:15.961Z,309.38
2019-04-27T12:13:10.898Z,326.25
2019-04-27T12:14:09.894Z,326.25
2019-04-27T12:15:09.880Z,326.25
2019-04-27T12:16:09.868Z,320.62
2019-04-27T12:17:09.862Z,320.62
2019-04-27T12:18:09.867Z,320.62
2019-04-27T12:19:09.835Z,331.88
2019-04-27T12:20:09.830Z,348.75
2019-04-27T12:21:09.813Z,354.38
2019-04-27T12:22:09.800Z,371.25
2019-04-27T12:23:09.793Z,371.25
2019-04-27T12:24:09.798Z,354.38
2019-04-27T12:25:09.777Z,331.88
2019-04-27T12:26:09.760Z,320.62
2019-04-27T12:27:09.748Z,303.75
2019-04-27T12:28:09.742Z,292.50
2019-04-27T12:29:09.724Z,264.38
2019-04-27T12:30:09.741Z,247.50
2019-04-27T12:31:09.703Z,230.62
2019-04-27T12:32:09.691Z,219.38
2019-04-27T12:33:09.686Z,219.38
2019-04-27T12:34:09.669Z,230.62
2019-04-27T12:35:09.663Z,236.25
2019-04-27T12:36:09.666Z,236.25
2019-04-27T12:37:09.635Z,230.62
2019-04-27T12:38:09.626Z,230.62
2019-04-27T12:39:09.616Z,225.00
2019-04-27T12:40:09.602Z,208.12
2019-04-27T12:41:09.592Z,196.88
2019-04-27T12:42:09.594Z,185.62
2019-04-27T12:43:09.571Z,180.00
2019-04-27T12:44:09.559Z,180.00
2019-04-27T12:45:09.548Z,185.62